Aviation Digital Data Service (ADDS)

Output produced by METARs form (0238 UTC 18 June 2019)
found at http://www.aviationweather.gov/metar/data/
 
METAR text: UNNT 180200Z 14005MPS CAVOK 16/08 Q1004 R25/090070 R16/090070 NOSIG RMK QFE743/0991
Conditions at: UNNT (TOLMACHEVO , RU) observed 0200 UTC 18 June 2019
Temperature: 16.0°C (61°F)
Dewpoint: 8.0°C (46°F) [RH = 59%]
Pressure (altimeter): 29.65 inches Hg (1004.0 mb)
Winds: from the SE (140 degrees) at 12 MPH (10 knots; 5.1 m/s)
Visibility: 6 or more miles (10+ km)
Ceiling: ceiling and visibility are OK
Clouds: unknown
Weather: no significant weather observed at this time

METAR text: UNNT 180130Z 14005MPS CAVOK 15/08 Q1005 R25/090070 R16/090070 NOSIG RMK QFE744/0992
Conditions at: UNNT (TOLMACHEVO , RU) observed 0130 UTC 18 June 2019
Temperature: 15.0°C (59°F)
Dewpoint: 8.0°C (46°F) [RH = 63%]
Pressure (altimeter): 29.68 inches Hg (1005.0 mb)
Winds: from the SE (140 degrees) at 12 MPH (10 knots; 5.1 m/s)
Visibility: 6 or more miles (10+ km)
Ceiling: ceiling and visibility are OK
Clouds: unknown
Weather: no significant weather observed at this time

METAR text: UNNT 180100Z 14005MPS CAVOK 15/08 Q1005 R25/090070 R16/090070 NOSIG RMK QFE744/0992
Conditions at: UNNT (TOLMACHEVO , RU) observed 0100 UTC 18 June 2019
Temperature: 15.0°C (59°F)
Dewpoint: 8.0°C (46°F) [RH = 63%]
Pressure (altimeter): 29.68 inches Hg (1005.0 mb)
Winds: from the SE (140 degrees) at 12 MPH (10 knots; 5.1 m/s)
Visibility: 6 or more miles (10+ km)
Ceiling: ceiling and visibility are OK
Clouds: unknown
Weather: no significant weather observed at this time

METAR text: UNNT 180030Z 15005MPS CAVOK 15/08 Q1005 R25/090070 R16/090070 NOSIG RMK QFE744/0992
Conditions at: UNNT (TOLMACHEVO , RU) observed 0030 UTC 18 June 2019
Temperature: 15.0°C (59°F)
Dewpoint: 8.0°C (46°F) [RH = 63%]
Pressure (altimeter): 29.68 inches Hg (1005.0 mb)
Winds: from the SSE (150 degrees) at 12 MPH (10 knots; 5.1 m/s)
Visibility: 6 or more miles (10+ km)
Ceiling: ceiling and visibility are OK
Clouds: unknown
Weather: no significant weather observed at this time

METAR text: UNNT 180000Z 14004MPS CAVOK 14/08 Q1006 R25/090070 R16/090070 NOSIG RMK QFE744/0993
Conditions at: UNNT (TOLMACHEVO , RU) observed 0000 UTC 18 June 2019
Temperature: 14.0°C (57°F)
Dewpoint: 8.0°C (46°F) [RH = 67%]
Pressure (altimeter): 29.70 inches Hg (1006.0 mb)
Winds: from the SE (140 degrees) at 9 MPH (8 knots; 4.1 m/s)
Visibility: 6 or more miles (10+ km)
Ceiling: ceiling and visibility are OK
Clouds: unknown
Weather: no significant weather observed at this time

METAR text: UNNT 172330Z 13004MPS CAVOK 13/08 Q1006 R25/090070 R16/090070 NOSIG RMK QFE745/0993
Conditions at: UNNT (TOLMACHEVO , RU) observed 2330 UTC 17 June 2019
Temperature: 13.0°C (55°F)
Dewpoint: 8.0°C (46°F) [RH = 72%]
Pressure (altimeter): 29.70 inches Hg (1006.0 mb)
Winds: from the SE (130 degrees) at 9 MPH (8 knots; 4.1 m/s)
Visibility: 6 or more miles (10+ km)
Ceiling: ceiling and visibility are OK
Clouds: unknown
Weather: no significant weather observed at this time

METAR text: UNNT 172300Z 14004MPS CAVOK 12/08 Q1006 R25/190065 R16/190065 NOSIG RMK QFE745/0993
Conditions at: UNNT (TOLMACHEVO , RU) observed 2300 UTC 17 June 2019
Temperature: 12.0°C (54°F)
Dewpoint: 8.0°C (46°F) [RH = 76%]
Pressure (altimeter): 29.70 inches Hg (1006.0 mb)
Winds: from the SE (140 degrees) at 9 MPH (8 knots; 4.1 m/s)
Visibility: 6 or more miles (10+ km)
Ceiling: ceiling and visibility are OK
Clouds: unknown
Weather: no significant weather observed at this time

METAR text: UNNT 172230Z 14004MPS CAVOK 11/07 Q1007 R07/190065 R16/190065 NOSIG RMK QFE745/0994
Conditions at: UNNT (TOLMACHEVO , RU) observed 2230 UTC 17 June 2019
Temperature: 11.0°C (52°F)
Dewpoint: 7.0°C (45°F) [RH = 76%]
Pressure (altimeter): 29.73 inches Hg (1007.0 mb)
Winds: from the SE (140 degrees) at 9 MPH (8 knots; 4.1 m/s)
Visibility: 6 or more miles (10+ km)
Ceiling: ceiling and visibility are OK
Clouds: unknown
Weather: no significant weather observed at this time

METAR text: UNNT 172200Z 14003MPS CAVOK 10/07 Q1007 R07/190065 R16/190065 NOSIG RMK QFE745/0994
Conditions at: UNNT (TOLMACHEVO , RU) observed 2200 UTC 17 June 2019
Temperature: 10.0°C (50°F)
Dewpoint: 7.0°C (45°F) [RH = 82%]
Pressure (altimeter): 29.73 inches Hg (1007.0 mb)
Winds: from the SE (140 degrees) at 7 MPH (6 knots; 3.1 m/s)
Visibility: 6 or more miles (10+ km)
Ceiling: ceiling and visibility are OK
Clouds: unknown
Weather: no significant weather observed at this time

METAR text: UNNT 172130Z 15003MPS CAVOK 11/08 Q1007 R07/190065 R16/190065 NOSIG RMK QFE745/0994
Conditions at: UNNT (TOLMACHEVO , RU) observed 2130 UTC 17 June 2019
Temperature: 11.0°C (52°F)
Dewpoint: 8.0°C (46°F) [RH = 82%]
Pressure (altimeter): 29.73 inches Hg (1007.0 mb)
Winds: from the SSE (150 degrees) at 7 MPH (6 knots; 3.1 m/s)
Visibility: 6 or more miles (10+ km)
Ceiling: ceiling and visibility are OK
Clouds: unknown
Weather: no significant weather observed at this time

METAR text: UNNT 172100Z 15004MPS CAVOK 11/08 Q1007 R25/190065 R16/190065 NOSIG RMK QFE746/0994
Conditions at: UNNT (TOLMACHEVO , RU) observed 2100 UTC 17 June 2019
Temperature: 11.0°C (52°F)
Dewpoint: 8.0°C (46°F) [RH = 82%]
Pressure (altimeter): 29.73 inches Hg (1007.0 mb)
Winds: from the SSE (150 degrees) at 9 MPH (8 knots; 4.1 m/s)
Visibility: 6 or more miles (10+ km)
Ceiling: ceiling and visibility are OK
Clouds: unknown
Weather: no significant weather observed at this time

METAR text: UNNT 172030Z 15004MPS CAVOK 11/08 Q1007 R25/190065 R16/190065 NOSIG RMK QFE746/0994
Conditions at: UNNT (TOLMACHEVO , RU) observed 2030 UTC 17 June 2019
Temperature: 11.0°C (52°F)
Dewpoint: 8.0°C (46°F) [RH = 82%]
Pressure (altimeter): 29.73 inches Hg (1007.0 mb)
Winds: from the SSE (150 degrees) at 9 MPH (8 knots; 4.1 m/s)
Visibility: 6 or more miles (10+ km)
Ceiling: ceiling and visibility are OK
Clouds: unknown
Weather: no significant weather observed at this time

METAR text: UNNT 172000Z 16004MPS CAVOK 11/08 Q1008 R25/190065 R16/190065 NOSIG RMK QFE746/0994
Conditions at: UNNT (TOLMACHEVO , RU) observed 2000 UTC 17 June 2019
Temperature: 11.0°C (52°F)
Dewpoint: 8.0°C (46°F) [RH = 82%]
Pressure (altimeter): 29.76 inches Hg (1008.0 mb)
Winds: from the SSE (160 degrees) at 9 MPH (8 knots; 4.1 m/s)
Visibility: 6 or more miles (10+ km)
Ceiling: ceiling and visibility are OK
Clouds: unknown
Weather: no significant weather observed at this time

METAR text: UNNT 171930Z 17004MPS CAVOK 12/08 Q1008 R25/190065 R16/190065 NOSIG RMK QFE746/0995
Conditions at: UNNT (TOLMACHEVO , RU) observed 1930 UTC 17 June 2019
Temperature: 12.0°C (54°F)
Dewpoint: 8.0°C (46°F) [RH = 76%]
Pressure (altimeter): 29.76 inches Hg (1008.0 mb)
Winds: from the S (170 degrees) at 9 MPH (8 knots; 4.1 m/s)
Visibility: 6 or more miles (10+ km)
Ceiling: ceiling and visibility are OK
Clouds: unknown
Weather: no significant weather observed at this time

METAR text: UNNT 171900Z 16004MPS CAVOK 12/08 Q1008 R25/190065 R16/190065 NOSIG RMK QFE746/0995
Conditions at: UNNT (TOLMACHEVO , RU) observed 1900 UTC 17 June 2019
Temperature: 12.0°C (54°F)
Dewpoint: 8.0°C (46°F) [RH = 76%]
Pressure (altimeter): 29.76 inches Hg (1008.0 mb)
Winds: from the SSE (160 degrees) at 9 MPH (8 knots; 4.1 m/s)
Visibility: 6 or more miles (10+ km)
Ceiling: ceiling and visibility are OK
Clouds: unknown
Weather: no significant weather observed at this time

METAR text: UNNT 171830Z 17004MPS CAVOK 12/09 Q1009 R25/190065 R16/190065 NOSIG RMK QFE746/0995
Conditions at: UNNT (TOLMACHEVO , RU) observed 1830 UTC 17 June 2019
Temperature: 12.0°C (54°F)
Dewpoint: 9.0°C (48°F) [RH = 82%]
Pressure (altimeter): 29.79 inches Hg (1009.0 mb)
Winds: from the S (170 degrees) at 9 MPH (8 knots; 4.1 m/s)
Visibility: 6 or more miles (10+ km)
Ceiling: ceiling and visibility are OK
Clouds: unknown
Weather: no significant weather observed at this time

METAR text: UNNT 171800Z 16004MPS CAVOK 13/09 Q1009 R25/190065 R16/190065 NOSIG RMK QFE746/0995
Conditions at: UNNT (TOLMACHEVO , RU) observed 1800 UTC 17 June 2019
Temperature: 13.0°C (55°F)
Dewpoint: 9.0°C (48°F) [RH = 77%]
Pressure (altimeter): 29.79 inches Hg (1009.0 mb)
Winds: from the SSE (160 degrees) at 9 MPH (8 knots; 4.1 m/s)
Visibility: 6 or more miles (10+ km)
Ceiling: ceiling and visibility are OK
Clouds: unknown
Weather: no significant weather observed at this time

METAR text: UNNT 171730Z 16004MPS CAVOK 13/09 Q1009 R25/190065 R16/190065 NOSIG RMK QFE747/0996
Conditions at: UNNT (TOLMACHEVO , RU) observed 1730 UTC 17 June 2019
Temperature: 13.0°C (55°F)
Dewpoint: 9.0°C (48°F) [RH = 77%]
Pressure (altimeter): 29.79 inches Hg (1009.0 mb)
Winds: from the SSE (160 degrees) at 9 MPH (8 knots; 4.1 m/s)
Visibility: 6 or more miles (10+ km)
Ceiling: ceiling and visibility are OK
Clouds: unknown
Weather: no significant weather observed at this time

METAR text: UNNT 171700Z 17004MPS CAVOK 13/09 Q1009 R25/190065 R16/190065 NOSIG RMK QFE747/0996
Conditions at: UNNT (TOLMACHEVO , RU) observed 1700 UTC 17 June 2019
Temperature: 13.0°C (55°F)
Dewpoint: 9.0°C (48°F) [RH = 77%]
Pressure (altimeter): 29.79 inches Hg (1009.0 mb)
Winds: from the S (170 degrees) at 9 MPH (8 knots; 4.1 m/s)
Visibility: 6 or more miles (10+ km)
Ceiling: ceiling and visibility are OK
Clouds: unknown
Weather: no significant weather observed at this time

METAR text: UNNT 171630Z 17004MPS CAVOK 14/09 Q1009 R25/190065 R16/190065 NOSIG RMK QFE747/0996
Conditions at: UNNT (TOLMACHEVO , RU) observed 1630 UTC 17 June 2019
Temperature: 14.0°C (57°F)
Dewpoint: 9.0°C (48°F) [RH = 72%]
Pressure (altimeter): 29.79 inches Hg (1009.0 mb)
Winds: from the S (170 degrees) at 9 MPH (8 knots; 4.1 m/s)
Visibility: 6 or more miles (10+ km)
Ceiling: ceiling and visibility are OK
Clouds: unknown
Weather: no significant weather observed at this time

METAR text: UNNT 171600Z 16004MPS CAVOK 14/09 Q1009 R25/190065 R16/190065 NOSIG RMK QFE747/0996
Conditions at: UNNT (TOLMACHEVO , RU) observed 1600 UTC 17 June 2019
Temperature: 14.0°C (57°F)
Dewpoint: 9.0°C (48°F) [RH = 72%]
Pressure (altimeter): 29.79 inches Hg (1009.0 mb)
Winds: from the SSE (160 degrees) at 9 MPH (8 knots; 4.1 m/s)
Visibility: 6 or more miles (10+ km)
Ceiling: ceiling and visibility are OK
Clouds: unknown
Weather: no significant weather observed at this time

METAR text: UNNT 171530Z 16004MPS CAVOK 13/09 Q1009 R25/190065 R16/190065 NOSIG RMK QFE747/0996
Conditions at: UNNT (TOLMACHEVO , RU) observed 1530 UTC 17 June 2019
Temperature: 13.0°C (55°F)
Dewpoint: 9.0°C (48°F) [RH = 77%]
Pressure (altimeter): 29.79 inches Hg (1009.0 mb)
Winds: from the SSE (160 degrees) at 9 MPH (8 knots; 4.1 m/s)
Visibility: 6 or more miles (10+ km)
Ceiling: ceiling and visibility are OK
Clouds: unknown
Weather: no significant weather observed at this time

METAR text: UNNT 171500Z 16003MPS CAVOK 14/09 Q1009 R25/190065 R16/190065 NOSIG RMK QFE747/0996
Conditions at: UNNT (TOLMACHEVO , RU) observed 1500 UTC 17 June 2019
Temperature: 14.0°C (57°F)
Dewpoint: 9.0°C (48°F) [RH = 72%]
Pressure (altimeter): 29.79 inches Hg (1009.0 mb)
Winds: from the SSE (160 degrees) at 7 MPH (6 knots; 3.1 m/s)
Visibility: 6 or more miles (10+ km)
Ceiling: ceiling and visibility are OK
Clouds: unknown
Weather: no significant weather observed at this time

METAR text: UNNT 171430Z 16003MPS CAVOK 15/09 Q1009 R25/190065 R16/190065 NOSIG RMK QFE747/0996
Conditions at: UNNT (TOLMACHEVO , RU) observed 1430 UTC 17 June 2019
Temperature: 15.0°C (59°F)
Dewpoint: 9.0°C (48°F) [RH = 67%]
Pressure (altimeter): 29.79 inches Hg (1009.0 mb)
Winds: from the SSE (160 degrees) at 7 MPH (6 knots; 3.1 m/s)
Visibility: 6 or more miles (10+ km)
Ceiling: ceiling and visibility are OK
Clouds: unknown
Weather: no significant weather observed at this time

METAR text: UNNT 171400Z 15004MPS CAVOK 16/10 Q1009 R25/190065 R16/190065 NOSIG RMK QFE747/0996
Conditions at: UNNT (TOLMACHEVO , RU) observed 1400 UTC 17 June 2019
Temperature: 16.0°C (61°F)
Dewpoint: 10.0°C (50°F) [RH = 68%]
Pressure (altimeter): 29.79 inches Hg (1009.0 mb)
Winds: from the SSE (150 degrees) at 9 MPH (8 knots; 4.1 m/s)
Visibility: 6 or more miles (10+ km)
Ceiling: ceiling and visibility are OK
Clouds: unknown
Weather: no significant weather observed at this time

METAR text: UNNT 171330Z 13002MPS CAVOK 17/10 Q1010 R25/190065 R16/190065 NOSIG RMK QFE747/0996
Conditions at: UNNT (TOLMACHEVO , RU) observed 1330 UTC 17 June 2019
Temperature: 17.0°C (63°F)
Dewpoint: 10.0°C (50°F) [RH = 63%]
Pressure (altimeter): 29.82 inches Hg (1010.0 mb)
Winds: from the SE (130 degrees) at 5 MPH (4 knots; 2.1 m/s)
Visibility: 6 or more miles (10+ km)
Ceiling: ceiling and visibility are OK
Clouds: unknown
Weather: no significant weather observed at this time

METAR text: UNNT 171300Z 17002MPS CAVOK 16/10 Q1010 R25/290160 R16/090070 NOSIG RMK QFE747/0996
Conditions at: UNNT (TOLMACHEVO , RU) observed 1300 UTC 17 June 2019
Temperature: 16.0°C (61°F)
Dewpoint: 10.0°C (50°F) [RH = 68%]
Pressure (altimeter): 29.82 inches Hg (1010.0 mb)
Winds: from the S (170 degrees) at 5 MPH (4 knots; 2.1 m/s)
Visibility: 6 or more miles (10+ km)
Ceiling: ceiling and visibility are OK
Clouds: unknown
Weather: no significant weather observed at this time

METAR text: UNNT 171230Z 22003MPS CAVOK 16/10 Q1010 R25/290160 R16/090070 NOSIG RMK QFE747/0996
Conditions at: UNNT (TOLMACHEVO , RU) observed 1230 UTC 17 June 2019
Temperature: 16.0°C (61°F)
Dewpoint: 10.0°C (50°F) [RH = 68%]
Pressure (altimeter): 29.82 inches Hg (1010.0 mb)
Winds: from the SW (220 degrees) at 7 MPH (6 knots; 3.1 m/s)
Visibility: 6 or more miles (10+ km)
Ceiling: ceiling and visibility are OK
Clouds: unknown
Weather: no significant weather observed at this time

METAR text: UNNT 171200Z 20003MPS CAVOK 16/09 Q1010 R25/290160 R16/090070 NOSIG RMK QFE747/0996
Conditions at: UNNT (TOLMACHEVO , RU) observed 1200 UTC 17 June 2019
Temperature: 16.0°C (61°F)
Dewpoint: 9.0°C (48°F) [RH = 63%]
Pressure (altimeter): 29.82 inches Hg (1010.0 mb)
Winds: from the SSW (200 degrees) at 7 MPH (6 knots; 3.1 m/s)
Visibility: 6 or more miles (10+ km)
Ceiling: ceiling and visibility are OK
Clouds: unknown
Weather: no significant weather observed at this time

METAR text: UNNT 171130Z 21003MPS CAVOK 16/09 Q1010 R25/290160 R16/090070 NOSIG RMK QFE747/0996
Conditions at: UNNT (TOLMACHEVO , RU) observed 1130 UTC 17 June 2019
Temperature: 16.0°C (61°F)
Dewpoint: 9.0°C (48°F) [RH = 63%]
Pressure (altimeter): 29.82 inches Hg (1010.0 mb)
Winds: from the SSW (210 degrees) at 7 MPH (6 knots; 3.1 m/s)
Visibility: 6 or more miles (10+ km)
Ceiling: ceiling and visibility are OK
Clouds: unknown
Weather: no significant weather observed at this time

METAR text: UNNT 171100Z 23005MPS 9999 BKN050CB 15/08 Q1010 R25/290160 R16/090070 NOSIG RMK QFE747/0997
Conditions at: UNNT (TOLMACHEVO , RU) observed 1100 UTC 17 June 2019
Temperature: 15.0°C (59°F)
Dewpoint: 8.0°C (46°F) [RH = 63%]
Pressure (altimeter): 29.82 inches Hg (1010.0 mb)
Winds: from the SW (230 degrees) at 12 MPH (10 knots; 5.1 m/s)
Visibility: 6 or more miles (10+ km)
Ceiling: 5000 feet AGL
Clouds: broken clouds at 5000 feet AGL
Weather: no significant weather observed at this time

METAR text: UNNT 171030Z 24010G16MPS 6000 -SHRA BKN036CB 12/09 Q1011 R25/290160 R16/090070 NOSIG RMK QFE748/0997
Conditions at: UNNT (TOLMACHEVO , RU) observed 1030 UTC 17 June 2019
Temperature: 12.0°C (54°F)
Dewpoint: 9.0°C (48°F) [RH = 82%]
Pressure (altimeter): 29.85 inches Hg (1011.0 mb)
Winds: from the WSW (240 degrees) at 22 MPH (19 knots; 9.8 m/s)
gusting to 36 MPH (31 knots; 15.9 m/s)
Visibility: 4 miles ( 6 km)
Ceiling: 3600 feet AGL
Clouds: broken clouds at 3600 feet AGL
Weather: -SHRA  (light rain showers)

METAR text: UNNT 171000Z 25008G16MPS 9999 BKN027CB 16/09 Q1010 R25/290160 R16/090070 NOSIG RMK QFE748/0997
Conditions at: UNNT (TOLMACHEVO , RU) observed 1000 UTC 17 June 2019
Temperature: 16.0°C (61°F)
Dewpoint: 9.0°C (48°F) [RH = 63%]
Pressure (altimeter): 29.82 inches Hg (1010.0 mb)
Winds: from the WSW (250 degrees) at 18 MPH (16 knots; 8.2 m/s)
gusting to 36 MPH (31 knots; 15.9 m/s)
Visibility: 6 or more miles (10+ km)
Ceiling: 2700 feet AGL
Clouds: broken clouds at 2700 feet AGL
Weather: no significant weather observed at this time

METAR text: UNNT 170930Z 28005MPS 9999 BKN050CB 14/11 Q1010 R25/290160 R16/090070 NOSIG RMK QFE748/0997
Conditions at: UNNT (TOLMACHEVO , RU) observed 0930 UTC 17 June 2019
Temperature: 14.0°C (57°F)
Dewpoint: 11.0°C (52°F) [RH = 82%]
Pressure (altimeter): 29.82 inches Hg (1010.0 mb)
Winds: from the W (280 degrees) at 12 MPH (10 knots; 5.1 m/s)
Visibility: 6 or more miles (10+ km)
Ceiling: 5000 feet AGL
Clouds: broken clouds at 5000 feet AGL
Weather: no significant weather observed at this time

METAR text: UNNT 170900Z 28008MPS 9000 VCTS -SHRA BKN047CB 13/10 Q1011 R25/290160 R16/090070 NOSIG RMK QFE748/0998
Conditions at: UNNT (TOLMACHEVO , RU) observed 0900 UTC 17 June 2019
Temperature: 13.0°C (55°F)
Dewpoint: 10.0°C (50°F) [RH = 82%]
Pressure (altimeter): 29.85 inches Hg (1011.0 mb)
Winds: from the W (280 degrees) at 18 MPH (16 knots; 8.2 m/s)
Visibility: 6 miles ( 9 km)
Ceiling: 4700 feet AGL
Clouds: broken clouds at 4700 feet AGL
Weather: VCTS -SHRA  (thunderstorm in vicinity, light rain showers)

METAR text: UNNT 170830Z 24009G18MPS 9999 BKN053CB 19/06 Q1009 R25/090070 R16/090070 NOSIG RMK QFE747/0996
Conditions at: UNNT (TOLMACHEVO , RU) observed 0830 UTC 17 June 2019
Temperature: 19.0°C (66°F)
Dewpoint: 6.0°C (43°F) [RH = 43%]
Pressure (altimeter): 29.79 inches Hg (1009.0 mb)
Winds: from the WSW (240 degrees) at 20 MPH (17 knots; 8.7 m/s)
gusting to 40 MPH (35 knots; 18.0 m/s)
Visibility: 6 or more miles (10+ km)
Ceiling: 5300 feet AGL
Clouds: broken clouds at 5300 feet AGL
Weather: no significant weather observed at this time

METAR text: UNNT 170800Z 23009MPS 9999 SCT050CB 21/07 Q1009 R25/090070 R16/090070 NOSIG RMK QFE747/0996
Conditions at: UNNT (TOLMACHEVO , RU) observed 0800 UTC 17 June 2019
Temperature: 21.0°C (70°F)
Dewpoint: 7.0°C (45°F) [RH = 40%]
Pressure (altimeter): 29.79 inches Hg (1009.0 mb)
Winds: from the SW (230 degrees) at 20 MPH (17 knots; 8.7 m/s)
Visibility: 6 or more miles (10+ km)
Ceiling: at least 12,000 feet AGL
Clouds: scattered clouds at 5000 feet AGL
Weather: no significant weather observed at this time

METAR text: UNNT 170730Z 22007MPS 9999 SCT046CB 20/07 Q1009 R25/090070 R16/090070 NOSIG RMK QFE747/0996
Conditions at: UNNT (TOLMACHEVO , RU) observed 0730 UTC 17 June 2019
Temperature: 20.0°C (68°F)
Dewpoint: 7.0°C (45°F) [RH = 43%]
Pressure (altimeter): 29.79 inches Hg (1009.0 mb)
Winds: from the SW (220 degrees) at 16 MPH (14 knots; 7.2 m/s)
Visibility: 6 or more miles (10+ km)
Ceiling: at least 12,000 feet AGL
Clouds: scattered clouds at 4600 feet AGL
Weather: no significant weather observed at this time

METAR text: UNNT 170700Z 22006G11MPS 9999 SCT046CB 20/09 Q1010 R25/090070 R16/090070 NOSIG RMK QFE747/0996
Conditions at: UNNT (TOLMACHEVO , RU) observed 0700 UTC 17 June 2019
Temperature: 20.0°C (68°F)
Dewpoint: 9.0°C (48°F) [RH = 49%]
Pressure (altimeter): 29.82 inches Hg (1010.0 mb)
Winds: from the SW (220 degrees) at 14 MPH (12 knots; 6.2 m/s)
gusting to 24 MPH (21 knots; 10.8 m/s)
Visibility: 6 or more miles (10+ km)
Ceiling: at least 12,000 feet AGL
Clouds: scattered clouds at 4600 feet AGL
Weather: no significant weather observed at this time

METAR text: UNNT 170630Z 23007MPS 9999 SCT046CB 19/09 Q1010 R25/090070 R16/090070 NOSIG RMK QFE748/0997
Conditions at: UNNT (TOLMACHEVO , RU) observed 0630 UTC 17 June 2019
Temperature: 19.0°C (66°F)
Dewpoint: 9.0°C (48°F) [RH = 52%]
Pressure (altimeter): 29.82 inches Hg (1010.0 mb)
Winds: from the SW (230 degrees) at 16 MPH (14 knots; 7.2 m/s)
Visibility: 6 or more miles (10+ km)
Ceiling: at least 12,000 feet AGL
Clouds: scattered clouds at 4600 feet AGL
Weather: no significant weather observed at this time

METAR text: UNNT 170600Z 22006G11MPS 9999 SCT046CB 19/08 Q1010 R25/090070 R16/090070 NOSIG RMK QFE748/0997
Conditions at: UNNT (TOLMACHEVO , RU) observed 0600 UTC 17 June 2019
Temperature: 19.0°C (66°F)
Dewpoint: 8.0°C (46°F) [RH = 49%]
Pressure (altimeter): 29.82 inches Hg (1010.0 mb)
Winds: from the SW (220 degrees) at 14 MPH (12 knots; 6.2 m/s)
gusting to 24 MPH (21 knots; 10.8 m/s)
Visibility: 6 or more miles (10+ km)
Ceiling: at least 12,000 feet AGL
Clouds: scattered clouds at 4600 feet AGL
Weather: no significant weather observed at this time

METAR text: UNNT 170530Z 20005MPS 9999 SCT046 18/10 Q1011 R25/090070 R16/090070 NOSIG RMK QFE748/0997
Conditions at: UNNT (TOLMACHEVO , RU) observed 0530 UTC 17 June 2019
Temperature: 18.0°C (64°F)
Dewpoint: 10.0°C (50°F) [RH = 59%]
Pressure (altimeter): 29.85 inches Hg (1011.0 mb)
Winds: from the SSW (200 degrees) at 12 MPH (10 knots; 5.1 m/s)
Visibility: 6 or more miles (10+ km)
Ceiling: at least 12,000 feet AGL
Clouds: scattered clouds at 4600 feet AGL
Weather: no significant weather observed at this time

METAR text: UNNT 170500Z 20004MPS 9999 SCT053CB 16/10 Q1011 R25/090070 R16/090070 NOSIG RMK QFE748/0998
Conditions at: UNNT (TOLMACHEVO , RU) observed 0500 UTC 17 June 2019
Temperature: 16.0°C (61°F)
Dewpoint: 10.0°C (50°F) [RH = 68%]
Pressure (altimeter): 29.85 inches Hg (1011.0 mb)
Winds: from the SSW (200 degrees) at 9 MPH (8 knots; 4.1 m/s)
Visibility: 6 or more miles (10+ km)
Ceiling: at least 12,000 feet AGL
Clouds: scattered clouds at 5300 feet AGL
Weather: no significant weather observed at this time

METAR text: UNNT 170430Z 22005MPS 9999 SCT056CB 15/09 Q1011 R25/090070 R16/090070 NOSIG RMK QFE748/0998
Conditions at: UNNT (TOLMACHEVO , RU) observed 0430 UTC 17 June 2019
Temperature: 15.0°C (59°F)
Dewpoint: 9.0°C (48°F) [RH = 67%]
Pressure (altimeter): 29.85 inches Hg (1011.0 mb)
Winds: from the SW (220 degrees) at 12 MPH (10 knots; 5.1 m/s)
Visibility: 6 or more miles (10+ km)
Ceiling: at least 12,000 feet AGL
Clouds: scattered clouds at 5600 feet AGL
Weather: no significant weather observed at this time

METAR text: UNNT 170400Z 20004MPS 9999 SCT060CB 15/09 Q1011 R25/090070 R16/090070 NOSIG RMK QFE748/0997
Conditions at: UNNT (TOLMACHEVO , RU) observed 0400 UTC 17 June 2019
Temperature: 15.0°C (59°F)
Dewpoint: 9.0°C (48°F) [RH = 67%]
Pressure (altimeter): 29.85 inches Hg (1011.0 mb)
Winds: from the SSW (200 degrees) at 9 MPH (8 knots; 4.1 m/s)
Visibility: 6 or more miles (10+ km)
Ceiling: at least 12,000 feet AGL
Clouds: scattered clouds at 6000 feet AGL
Weather: no significant weather observed at this time

METAR text: UNNT 170330Z 20004MPS CAVOK 15/10 Q1010 R25/090070 R16/090070 NOSIG RMK QFE748/0997
Conditions at: UNNT (TOLMACHEVO , RU) observed 0330 UTC 17 June 2019
Temperature: 15.0°C (59°F)
Dewpoint: 10.0°C (50°F) [RH = 72%]
Pressure (altimeter): 29.82 inches Hg (1010.0 mb)
Winds: from the SSW (200 degrees) at 9 MPH (8 knots; 4.1 m/s)
Visibility: 6 or more miles (10+ km)
Ceiling: ceiling and visibility are OK
Clouds: unknown
Weather: no significant weather observed at this time

METAR text: UNNT 170300Z 21004MPS CAVOK 14/10 Q1011 R25/090070 R16/090070 NOSIG RMK QFE748/0997
Conditions at: UNNT (TOLMACHEVO , RU) observed 0300 UTC 17 June 2019
Temperature: 14.0°C (57°F)
Dewpoint: 10.0°C (50°F) [RH = 77%]
Pressure (altimeter): 29.85 inches Hg (1011.0 mb)
Winds: from the SSW (210 degrees) at 9 MPH (8 knots; 4.1 m/s)
Visibility: 6 or more miles (10+ km)
Ceiling: ceiling and visibility are OK
Clouds: unknown
Weather: no significant weather observed at this time

METAR text: UNNT 170230Z 20004MPS CAVOK 13/09 Q1011 R25/090070 R16/090070 NOSIG RMK QFE748/0997
Conditions at: UNNT (TOLMACHEVO , RU) observed 0230 UTC 17 June 2019
Temperature: 13.0°C (55°F)
Dewpoint: 9.0°C (48°F) [RH = 77%]
Pressure (altimeter): 29.85 inches Hg (1011.0 mb)
Winds: from the SSW (200 degrees) at 9 MPH (8 knots; 4.1 m/s)
Visibility: 6 or more miles (10+ km)
Ceiling: ceiling and visibility are OK
Clouds: unknown
Weather: no significant weather observed at this time

METAR text: UNNT 170200Z 20004MPS 9999 SCT060CB 12/08 Q1010 R25/090070 R16/090070 NOSIG RMK QFE748/0997
Conditions at: UNNT (TOLMACHEVO , RU) observed 0200 UTC 17 June 2019
Temperature: 12.0°C (54°F)
Dewpoint: 8.0°C (46°F) [RH = 76%]
Pressure (altimeter): 29.82 inches Hg (1010.0 mb)
Winds: from the SSW (200 degrees) at 9 MPH (8 knots; 4.1 m/s)
Visibility: 6 or more miles (10+ km)
Ceiling: at least 12,000 feet AGL
Clouds: scattered clouds at 6000 feet AGL
Weather: no significant weather observed at this time

METAR text: UNNT 170130Z 22004MPS 9999 SCT060CB 12/09 Q1010 R25/290160 R16/290160 NOSIG RMK QFE748/0997
Conditions at: UNNT (TOLMACHEVO , RU) observed 0130 UTC 17 June 2019
Temperature: 12.0°C (54°F)
Dewpoint: 9.0°C (48°F) [RH = 82%]
Pressure (altimeter): 29.82 inches Hg (1010.0 mb)
Winds: from the SW (220 degrees) at 9 MPH (8 knots; 4.1 m/s)
Visibility: 6 or more miles (10+ km)
Ceiling: at least 12,000 feet AGL
Clouds: scattered clouds at 6000 feet AGL
Weather: no significant weather observed at this time

METAR text: UNNT 170100Z 21004MPS 9999 SCT060CB 11/08 Q1010 R25/290160 R16/290160 NOSIG RMK QFE748/0997
Conditions at: UNNT (TOLMACHEVO , RU) observed 0100 UTC 17 June 2019
Temperature: 11.0°C (52°F)
Dewpoint: 8.0°C (46°F) [RH = 82%]
Pressure (altimeter): 29.82 inches Hg (1010.0 mb)
Winds: from the SSW (210 degrees) at 9 MPH (8 knots; 4.1 m/s)
Visibility: 6 or more miles (10+ km)
Ceiling: at least 12,000 feet AGL
Clouds: scattered clouds at 6000 feet AGL
Weather: no significant weather observed at this time

METAR text: UNNT 170030Z 20003MPS 9999 BKN060CB 10/08 Q1010 R25/290160 R16/290160 NOSIG RMK QFE748/0997
Conditions at: UNNT (TOLMACHEVO , RU) observed 0030 UTC 17 June 2019
Temperature: 10.0°C (50°F)
Dewpoint: 8.0°C (46°F) [RH = 87%]
Pressure (altimeter): 29.82 inches Hg (1010.0 mb)
Winds: from the SSW (200 degrees) at 7 MPH (6 knots; 3.1 m/s)
Visibility: 6 or more miles (10+ km)
Ceiling: 6000 feet AGL
Clouds: broken clouds at 6000 feet AGL
Weather: no significant weather observed at this time

METAR text: UNNT 170000Z 20002MPS 9999 BKN060CB 10/07 Q1010 R25/290160 R16/290160 NOSIG RMK QFE747/0997
Conditions at: UNNT (TOLMACHEVO , RU) observed 0000 UTC 17 June 2019
Temperature: 10.0°C (50°F)
Dewpoint: 7.0°C (45°F) [RH = 82%]
Pressure (altimeter): 29.82 inches Hg (1010.0 mb)
Winds: from the SSW (200 degrees) at 5 MPH (4 knots; 2.1 m/s)
Visibility: 6 or more miles (10+ km)
Ceiling: 6000 feet AGL
Clouds: broken clouds at 6000 feet AGL
Weather: no significant weather observed at this time

METAR text: UNNT 162330Z 22003MPS CAVOK 09/07 Q1010 R25/290155 R16/290155 NOSIG RMK QFE747/0997
Conditions at: UNNT (TOLMACHEVO , RU) observed 2330 UTC 16 June 2019
Temperature: 9.0°C (48°F)
Dewpoint: 7.0°C (45°F) [RH = 87%]
Pressure (altimeter): 29.82 inches Hg (1010.0 mb)
Winds: from the SW (220 degrees) at 7 MPH (6 knots; 3.1 m/s)
Visibility: 6 or more miles (10+ km)
Ceiling: ceiling and visibility are OK
Clouds: unknown
Weather: no significant weather observed at this time

METAR text: UNNT 162300Z 22003MPS CAVOK 09/07 Q1010 R25/290155 R16/290155 NOSIG RMK QFE747/0996
Conditions at: UNNT (TOLMACHEVO , RU) observed 2300 UTC 16 June 2019
Temperature: 9.0°C (48°F)
Dewpoint: 7.0°C (45°F) [RH = 87%]
Pressure (altimeter): 29.82 inches Hg (1010.0 mb)
Winds: from the SW (220 degrees) at 7 MPH (6 knots; 3.1 m/s)
Visibility: 6 or more miles (10+ km)
Ceiling: ceiling and visibility are OK
Clouds: unknown
Weather: no significant weather observed at this time

METAR text: UNNT 162230Z 24006MPS 9999 SCT060CB 09/07 Q1009 R25/290155 R16/290155 NOSIG RMK QFE747/0996
Conditions at: UNNT (TOLMACHEVO , RU) observed 2230 UTC 16 June 2019
Temperature: 9.0°C (48°F)
Dewpoint: 7.0°C (45°F) [RH = 87%]
Pressure (altimeter): 29.79 inches Hg (1009.0 mb)
Winds: from the WSW (240 degrees) at 14 MPH (12 knots; 6.2 m/s)
Visibility: 6 or more miles (10+ km)
Ceiling: at least 12,000 feet AGL
Clouds: scattered clouds at 6000 feet AGL
Weather: no significant weather observed at this time

METAR text: UNNT 162200Z 25005MPS 9999 BKN060CB 09/07 Q1009 R25/290155 R16/290155 NOSIG RMK QFE747/0996
Conditions at: UNNT (TOLMACHEVO , RU) observed 2200 UTC 16 June 2019
Temperature: 9.0°C (48°F)
Dewpoint: 7.0°C (45°F) [RH = 87%]
Pressure (altimeter): 29.79 inches Hg (1009.0 mb)
Winds: from the WSW (250 degrees) at 12 MPH (10 knots; 5.1 m/s)
Visibility: 6 or more miles (10+ km)
Ceiling: 6000 feet AGL
Clouds: broken clouds at 6000 feet AGL
Weather: no significant weather observed at this time

METAR text: UNNT 162130Z 26004MPS 9999 BKN060CB 09/08 Q1009 R25/290155 R16/290155 NOSIG RMK QFE747/0996
Conditions at: UNNT (TOLMACHEVO , RU) observed 2130 UTC 16 June 2019
Temperature: 9.0°C (48°F)
Dewpoint: 8.0°C (46°F) [RH = 93%]
Pressure (altimeter): 29.79 inches Hg (1009.0 mb)
Winds: from the W (260 degrees) at 9 MPH (8 knots; 4.1 m/s)
Visibility: 6 or more miles (10+ km)
Ceiling: 6000 feet AGL
Clouds: broken clouds at 6000 feet AGL
Weather: no significant weather observed at this time

METAR text: UNNT 162100Z 27006MPS 9999 BKN060CB 09/07 Q1009 R25/290155 R16/290155 NOSIG RMK QFE746/0995
Conditions at: UNNT (TOLMACHEVO , RU) observed 2100 UTC 16 June 2019
Temperature: 9.0°C (48°F)
Dewpoint: 7.0°C (45°F) [RH = 87%]
Pressure (altimeter): 29.79 inches Hg (1009.0 mb)
Winds: from the W (270 degrees) at 14 MPH (12 knots; 6.2 m/s)
Visibility: 6 or more miles (10+ km)
Ceiling: 6000 feet AGL
Clouds: broken clouds at 6000 feet AGL
Weather: no significant weather observed at this time

METAR text: UNNT 162030Z 27005MPS 9999 BKN060CB 09/08 Q1008 R25/290155 R16/290155 NOSIG RMK QFE746/0995
Conditions at: UNNT (TOLMACHEVO , RU) observed 2030 UTC 16 June 2019
Temperature: 9.0°C (48°F)
Dewpoint: 8.0°C (46°F) [RH = 93%]
Pressure (altimeter): 29.76 inches Hg (1008.0 mb)
Winds: from the W (270 degrees) at 12 MPH (10 knots; 5.1 m/s)
Visibility: 6 or more miles (10+ km)
Ceiling: 6000 feet AGL
Clouds: broken clouds at 6000 feet AGL
Weather: no significant weather observed at this time

METAR text: UNNT 162000Z 27007MPS 9999 BKN060CB 09/08 Q1007 R25/290155 R16/290155 NOSIG RMK QFE746/0994
Conditions at: UNNT (TOLMACHEVO , RU) observed 2000 UTC 16 June 2019
Temperature: 9.0°C (48°F)
Dewpoint: 8.0°C (46°F) [RH = 93%]
Pressure (altimeter): 29.73 inches Hg (1007.0 mb)
Winds: from the W (270 degrees) at 16 MPH (14 knots; 7.2 m/s)
Visibility: 6 or more miles (10+ km)
Ceiling: 6000 feet AGL
Clouds: broken clouds at 6000 feet AGL
Weather: no significant weather observed at this time

METAR text: UNNT 161930Z 27008MPS 9999 FEW010 OVC046CB 09/08 Q1007 R25/290155 R16/290155 NOSIG RMK QFE745/0994
Conditions at: UNNT (TOLMACHEVO , RU) observed 1930 UTC 16 June 2019
Temperature: 9.0°C (48°F)
Dewpoint: 8.0°C (46°F) [RH = 93%]
Pressure (altimeter): 29.73 inches Hg (1007.0 mb)
Winds: from the W (270 degrees) at 18 MPH (16 knots; 8.2 m/s)
Visibility: 6 or more miles (10+ km)
Ceiling: 4600 feet AGL
Clouds: few clouds at 1000 feet AGL
overcast cloud deck at 4600 feet AGL
Weather: no significant weather observed at this time

METAR text: UNNT 161900Z 28008G13MPS 9999 -SHRA BKN010 OVC040CB 09/08 Q1006 R25/290155 R16/290155 NOSIG RMK QFE745/0993
Conditions at: UNNT (TOLMACHEVO , RU) observed 1900 UTC 16 June 2019
Temperature: 9.0°C (48°F)
Dewpoint: 8.0°C (46°F) [RH = 93%]
Pressure (altimeter): 29.70 inches Hg (1006.0 mb)
Winds: from the W (280 degrees) at 18 MPH (16 knots; 8.2 m/s)
gusting to 29 MPH (25 knots; 12.9 m/s)
Visibility: 6 or more miles (10+ km)
Ceiling: 1000 feet AGL
Clouds: broken clouds at 1000 feet AGL
overcast cloud deck at 4000 feet AGL
Weather: -SHRA  (light rain showers)

METAR text: UNNT 161830Z 29010MPS 6000 -SHRA BKN008 OVC030CB 09/08 Q1005 R25/290155 R16/290155 NOSIG RMK QFE744/0992
Conditions at: UNNT (TOLMACHEVO , RU) observed 1830 UTC 16 June 2019
Temperature: 9.0°C (48°F)
Dewpoint: 8.0°C (46°F) [RH = 93%]
Pressure (altimeter): 29.68 inches Hg (1005.0 mb)
Winds: from the WNW (290 degrees) at 22 MPH (19 knots; 9.8 m/s)
Visibility: 4 miles ( 6 km)
Ceiling: 800 feet AGL
Clouds: broken clouds at 800 feet AGL
overcast cloud deck at 3000 feet AGL
Weather: -SHRA  (light rain showers)

METAR text: UNNT 161800Z 28009MPS 9999 -SHRA BKN008 OVC030CB 10/08 Q1004 R25/290155 R16/290155 NOSIG RMK QFE743/0991
Conditions at: UNNT (TOLMACHEVO , RU) observed 1800 UTC 16 June 2019
Temperature: 10.0°C (50°F)
Dewpoint: 8.0°C (46°F) [RH = 87%]
Pressure (altimeter): 29.65 inches Hg (1004.0 mb)
Winds: from the W (280 degrees) at 20 MPH (17 knots; 8.7 m/s)
Visibility: 6 or more miles (10+ km)
Ceiling: 800 feet AGL
Clouds: broken clouds at 800 feet AGL
overcast cloud deck at 3000 feet AGL
Weather: -SHRA  (light rain showers)

METAR text: UNNT 161730Z 27009MPS 9000 -SHRA BKN008 OVC030CB 10/09 Q1003 R25/290155 R16/290155 NOSIG RMK QFE743/0990
Conditions at: UNNT (TOLMACHEVO , RU) observed 1730 UTC 16 June 2019
Temperature: 10.0°C (50°F)
Dewpoint: 9.0°C (48°F) [RH = 93%]
Pressure (altimeter): 29.62 inches Hg (1003.0 mb)
Winds: from the W (270 degrees) at 20 MPH (17 knots; 8.7 m/s)
Visibility: 6 miles ( 9 km)
Ceiling: 800 feet AGL
Clouds: broken clouds at 800 feet AGL
overcast cloud deck at 3000 feet AGL
Weather: -SHRA  (light rain showers)

METAR text: UNNT 161700Z 26008MPS 9999 -SHRA BKN008 OVC030CB 10/09 Q1003 R25/290155 R16/290155 NOSIG RMK QFE742/0990
Conditions at: UNNT (TOLMACHEVO , RU) observed 1700 UTC 16 June 2019
Temperature: 10.0°C (50°F)
Dewpoint: 9.0°C (48°F) [RH = 93%]
Pressure (altimeter): 29.62 inches Hg (1003.0 mb)
Winds: from the W (260 degrees) at 18 MPH (16 knots; 8.2 m/s)
Visibility: 6 or more miles (10+ km)
Ceiling: 800 feet AGL
Clouds: broken clouds at 800 feet AGL
overcast cloud deck at 3000 feet AGL
Weather: -SHRA  (light rain showers)

METAR text: UNNT 161630Z 26008MPS 9999 BKN008 OVC030CB 11/09 Q1003 R25/290155 R16/290155 NOSIG RMK QFE742/0989
Conditions at: UNNT (TOLMACHEVO , RU) observed 1630 UTC 16 June 2019
Temperature: 11.0°C (52°F)
Dewpoint: 9.0°C (48°F) [RH = 87%]
Pressure (altimeter): 29.62 inches Hg (1003.0 mb)
Winds: from the W (260 degrees) at 18 MPH (16 knots; 8.2 m/s)
Visibility: 6 or more miles (10+ km)
Ceiling: 800 feet AGL
Clouds: broken clouds at 800 feet AGL
overcast cloud deck at 3000 feet AGL
Weather: no significant weather observed at this time

METAR text: UNNT 161600Z 25005MPS 9999 BKN008 OVC030CB 12/10 Q1002 R25/290155 R16/290155 NOSIG RMK QFE742/0989
Conditions at: UNNT (TOLMACHEVO , RU) observed 1600 UTC 16 June 2019
Temperature: 12.0°C (54°F)
Dewpoint: 10.0°C (50°F) [RH = 88%]
Pressure (altimeter): 29.59 inches Hg (1002.0 mb)
Winds: from the WSW (250 degrees) at 12 MPH (10 knots; 5.1 m/s)
Visibility: 6 or more miles (10+ km)
Ceiling: 800 feet AGL
Clouds: broken clouds at 800 feet AGL
overcast cloud deck at 3000 feet AGL
Weather: no significant weather observed at this time

METAR text: UNNT 161530Z 24004MPS 9999 BKN008 OVC030CB 12/11 Q1002 R25/290155 R16/290155 NOSIG RMK QFE742/0989
Conditions at: UNNT (TOLMACHEVO , RU) observed 1530 UTC 16 June 2019
Temperature: 12.0°C (54°F)
Dewpoint: 11.0°C (52°F) [RH = 94%]
Pressure (altimeter): 29.59 inches Hg (1002.0 mb)
Winds: from the WSW (240 degrees) at 9 MPH (8 knots; 4.1 m/s)
Visibility: 6 or more miles (10+ km)
Ceiling: 800 feet AGL
Clouds: broken clouds at 800 feet AGL
overcast cloud deck at 3000 feet AGL
Weather: no significant weather observed at this time

METAR text: UNNT 161500Z 24005MPS 9999 SCT008 OVC040CB 12/11 Q1002 R25/290155 R16/290155 NOSIG RMK QFE741/0989
Conditions at: UNNT (TOLMACHEVO , RU) observed 1500 UTC 16 June 2019
Temperature: 12.0°C (54°F)
Dewpoint: 11.0°C (52°F) [RH = 94%]
Pressure (altimeter): 29.59 inches Hg (1002.0 mb)
Winds: from the WSW (240 degrees) at 12 MPH (10 knots; 5.1 m/s)
Visibility: 6 or more miles (10+ km)
Ceiling: 4000 feet AGL
Clouds: scattered clouds at 800 feet AGL
overcast cloud deck at 4000 feet AGL
Weather: no significant weather observed at this time

Forecast for: UNNT (TOLMACHEVO , RU)
Text: TAF UNNT 180200Z 1803/1903 13007G16MPS 9999 BKN040CB
Forecast period: 0300 to 0500 UTC 18 June 2019
Forecast type: FROM: standard forecast or significant change
Winds: from the SE (130 degrees) at 16 MPH (14 knots; 7.2 m/s)
gusting to 36 MPH (31 knots; 15.9 m/s)
Visibility: 6 or more miles 10+ km)
Ceiling: 4000 feet AGL
Clouds: broken clouds at 4000 feet AGL
Weather: no significant weather forecast for this period
Text: TEMPO 1803/1805 18003G08MPS -SHRA
Forecast period: 0300 to 0500 UTC 18 June 2019
Forecast type: TEMPORARY: The following changes expected for less than half the time period
Winds: from the S (180 degrees) at 7 MPH (6 knots; 3.1 m/s)
gusting to 18 MPH (16 knots; 8.2 m/s)
Visibility: missing
Ceiling: unknown
Clouds: missing
Weather: -SHRA  (light rain showers)
Text: FM180500 17007G17MPS 9999 BKN020CB
Forecast period: 0500 to 2000 UTC 18 June 2019
Forecast type: FROM: standard forecast or significant change
Winds: from the S (170 degrees) at 16 MPH (14 knots; 7.2 m/s)
gusting to 38 MPH (33 knots; 17.0 m/s)
Visibility: 6 or more miles 10+ km)
Ceiling: 2000 feet AGL
Clouds: broken clouds at 2000 feet AGL
Weather: no significant weather forecast for this period
Text: TEMPO 1805/1820 22003G08MPS 3100 -TSRA BKN011CB
Forecast period: 0500 to 2000 UTC 18 June 2019
Forecast type: TEMPORARY: The following changes expected for less than half the time period
Winds: from the SW (220 degrees) at 7 MPH (6 knots; 3.1 m/s)
gusting to 18 MPH (16 knots; 8.2 m/s)
Visibility: 1.93 miles (3.11 km)
Ceiling: 1100 feet AGL
Clouds: broken clouds at 1100 feet AGL
Weather: -TSRA  (light rain associated with thunderstorm(s))
Text: BECMG 1820/1821 25005G13MPS
Forecast period: 2000 UTC 18 June 2019 to 0300 UTC 19 June 2019
Forecast type: BECOMING: Conditions expected to become as follows by 2100 UTC 18 June 2019
Winds: from the WSW (250 degrees) at 12 MPH (10 knots; 5.1 m/s)
gusting to 29 MPH (25 knots; 12.9 m/s)
Visibility: 6 or more miles 10+ km)
Ceiling: 2000 feet AGL
Clouds: broken clouds at 2000 feet AGL
Weather: no significant weather forecast for this period